Airfield :







YOU CAN JOIN US ON...

 
LOGIN :

Register | Disclaimer

   EN    FR    IT 

 









Legend :    VFR   Marginal VFR   IFR   Intensive IFR   Very Intensive IFR
Visi :
Ceiling :
>= 8 km
>= 3000ft
5 to 8 km
1000 to 3000 ft
1500m to 5 km
500 to 1000 ft
800 to 1500m
200 to 500 ft
< 800m
< 200 ft
Symbols :   Thunderstorms  Fog  Heavy snow  Heavy precipitations  Wind > 20 kt







- Airport Elevation : 988 ft


KFVE - Northern Aroostook Regional

CURRENT METAR :
  • 221253Z AUTO 33004KT 10SM CLR 10/06 A3023 RMK AO2 SLP237 T01000061

EXPIRED METARs :
  • 221153Z AUTO 35005KT 10SM BKN050 06/04 A3021 RMK AO2 SLP234 T00610039 10083 20056 51019
  • 221053Z AUTO 34005KT 8SM CLR 07/04 A3020 RMK AO2 SLP229 T00670039

TAF KFVE
Valid from the 22 at 12:00 until the 23 at 12:00 UTC


221120Z 2212/2312 35010KT P6SM SCT050
KZBW FIR / North America



MET'MAP, your aeronautical weather chart ! - Copyright ORBIFLY December 2007 - Disclaimer

ORBIFLY MET'MAP TEAM :

Programming & Development : Alexandra Zaïnal
Concept & Development : Baudouin d'Aumeries
Co-Development & Prog : Marc-Olivier Méhu
Technical & hardware support : Manuel Goepfert

Contact : metmap@orbifly.com




SOURCES & CREDITS :

   NOAA